Time;durP1;ratioP1;P1;durP2;ratioP2;P2;SDS_P1;SDS_P2;PMS_P1;PMS_P2;Temp;Humidity;BMP_temperature;BMP_pressure;BME280_temperature;BME280_humidity;BME280_pressure;Samples;Min_cycle;Max_cycle;Signal;HPM_P1;HPM_P2
2021/12/26 00:02:00;;;;;;;11.45;2.40;;;;;;;;;;4959244;28;20054;-64
2021/12/26 00:04:32;;;;;;;15.95;3.42;;;;;;;;;;4992058;28;20058;-64
2021/12/26 00:07:03;;;;;;;18.60;2.25;;;;;;;;;;4992422;28;20071;-63
2021/12/26 00:09:34;;;;;;;20.23;2.90;;;;;;;;;;4992221;28;20063;-64
2021/12/26 00:12:05;;;;;;;18.38;2.35;;;;;;;;;;4992318;28;20487;-72
2021/12/26 00:14:35;;;;;;;18.75;2.70;;;;;;;;;;4972236;28;20050;-65
2021/12/26 00:17:05;;;;;;;15.68;2.65;;;;;;;;;;4972390;28;20051;-64
2021/12/26 00:19:35;;;;;;;21.42;3.00;;;;;;;;;;4972124;28;20055;-64
2021/12/26 00:22:06;;;;;;;19.83;3.10;;;;;;;;;;4972564;28;20070;-63
2021/12/26 00:24:37;;;;;;;13.43;2.95;;;;;;;;;;4972317;28;20051;-64
2021/12/26 00:27:07;;;;;;;15.93;2.97;;;;;;;;;;4940206;28;20058;-63
2021/12/26 00:29:38;;;;;;;18.73;3.25;;;;;;;;;;4952813;29;20048;-63
2021/12/26 00:32:09;;;;;;;18.52;3.28;;;;;;;;;;4962700;28;20050;-65
2021/12/26 00:34:39;;;;;;;17.50;2.80;;;;;;;;;;4972073;28;20063;-67
2021/12/26 00:37:10;;;;;;;15.38;3.67;;;;;;;;;;4981368;28;20054;-63
2021/12/26 00:39:40;;;;;;;15.02;3.47;;;;;;;;;;4984930;28;20461;-64
2021/12/26 00:42:10;;;;;;;22.42;3.95;;;;;;;;;;4952548;29;20058;-64
2021/12/26 00:44:41;;;;;;;18.65;3.22;;;;;;;;;;4970837;28;20066;-64
2021/12/26 00:47:13;;;;;;;27.23;2.80;;;;;;;;;;4971380;28;20051;-63
2021/12/26 00:49:44;;;;;;;16.77;3.17;;;;;;;;;;4972054;28;20065;-64
2021/12/26 00:52:14;;;;;;;16.23;2.72;;;;;;;;;;4962435;28;20043;-63
2021/12/26 00:54:47;;;;;;;12.32;2.90;;;;;;;;;;4952645;29;20132;-64
2021/12/26 00:57:17;;;;;;;17.10;2.67;;;;;;;;;;4968261;28;20062;-64
2021/12/26 00:59:47;;;;;;;16.85;3.38;;;;;;;;;;4968179;28;20055;-64
2021/12/26 01:02:18;;;;;;;12.15;2.35;;;;;;;;;;4952177;28;20058;-63
2021/12/26 01:04:49;;;;;;;20.38;3.45;;;;;;;;;;4933214;29;20051;-63
2021/12/26 01:10:14;;;;;;;18.30;3.38;;;;;;;;;;4932820;28;20742;-64
2021/12/26 01:12:45;;;;;;;12.45;3.10;;;;;;;;;;4948403;28;20048;-67
2021/12/26 01:15:18;;;;;;;18.83;3.10;;;;;;;;;;4946034;29;20084;-64
2021/12/26 01:17:55;;;;;;;22.02;3.35;;;;;;;;;;4952016;29;20062;-63
2021/12/26 01:20:48;;;;;;;14.60;2.95;;;;;;;;;;4908023;29;20057;-65
2021/12/26 01:23:22;;;;;;;16.88;3.42;;;;;;;;;;4915370;29;20056;-64
2021/12/26 01:25:54;;;;;;;14.73;3.10;;;;;;;;;;4896084;29;20544;-68
2021/12/26 01:28:28;;;;;;;19.70;3.17;;;;;;;;;;4913401;29;20056;-64
2021/12/26 01:31:02;;;;;;;17.00;3.20;;;;;;;;;;4894904;29;20111;-64
2021/12/26 01:33:37;;;;;;;19.17;3.30;;;;;;;;;;4913608;29;20067;-64
2021/12/26 01:36:34;;;;;;;20.40;3.70;;;;;;;;;;4932405;29;20401;-64
2021/12/26 01:39:37;;;;;;;17.35;3.03;;;;;;;;;;4932565;28;20056;-63
2021/12/26 01:42:18;;;;;;;11.95;3.05;;;;;;;;;;4901549;29;20057;-64
2021/12/26 01:45:07;;;;;;;18.88;2.85;;;;;;;;;;4894278;29;20525;-64
2021/12/26 01:47:47;;;;;;;11.65;2.63;;;;;;;;;;4906656;29;20052;-64
2021/12/26 01:50:18;;;;;;;24.65;3.38;;;;;;;;;;4904906;29;20068;-66
2021/12/26 01:52:48;;;;;;;15.30;2.90;;;;;;;;;;4875673;29;20471;-64
2021/12/26 01:55:38;;;;;;;14.95;3.00;;;;;;;;;;4867890;29;20058;-64
2021/12/26 01:58:20;;;;;;;23.10;3.60;;;;;;;;;;4859854;29;20406;-64
2021/12/26 02:00:54;;;;;;;16.23;3.15;;;;;;;;;;4875722;29;20056;-69
2021/12/26 02:03:26;;;;;;;25.67;3.35;;;;;;;;;;4878221;29;20085;-65
2021/12/26 02:05:56;;;;;;;19.35;3.60;;;;;;;;;;4863227;29;20522;-63
2021/12/26 02:08:30;;;;;;;23.15;2.85;;;;;;;;;;4860165;29;20058;-64
2021/12/26 02:11:02;;;;;;;16.67;2.95;;;;;;;;;;4845383;29;20061;-65
2021/12/26 02:13:34;;;;;;;15.82;3.13;;;;;;;;;;4884893;29;20064;-65
2021/12/26 02:16:09;;;;;;;16.95;2.55;;;;;;;;;;4920398;29;20051;-64
2021/12/26 02:18:41;;;;;;;20.25;2.85;;;;;;;;;;4931983;29;20055;-65
2021/12/26 02:29:34;;;;;;;16.35;2.97;;;;;;;;;;4933762;29;20055;-65
2021/12/26 02:32:05;;;;;;;20.05;3.80;;;;;;;;;;4969839;28;20058;-64
2021/12/26 02:34:36;;;;;;;14.38;3.35;;;;;;;;;;4950261;29;20066;-64
2021/12/26 02:37:07;;;;;;;12.65;3.25;;;;;;;;;;4934194;29;20140;-65
2021/12/26 02:39:37;;;;;;;18.55;3.63;;;;;;;;;;4914861;29;20483;-65
2021/12/26 02:42:08;;;;;;;18.33;3.90;;;;;;;;;;4968181;28;20446;-64
2021/12/26 02:44:38;;;;;;;16.70;3.88;;;;;;;;;;4952009;28;20159;-64
2021/12/26 02:47:08;;;;;;;12.60;3.47;;;;;;;;;;4929540;29;20055;-65
2021/12/26 02:49:39;;;;;;;12.60;3.17;;;;;;;;;;4946932;29;20070;-64
2021/12/26 02:52:09;;;;;;;15.40;3.55;;;;;;;;;;4952485;28;20066;-66
2021/12/26 02:54:40;;;;;;;20.75;4.03;;;;;;;;;;4922568;29;20051;-64
2021/12/26 02:57:10;;;;;;;11.63;3.45;;;;;;;;;;4931122;29;20058;-66
2021/12/26 02:59:41;;;;;;;15.07;2.88;;;;;;;;;;4915508;29;20051;-64
2021/12/26 03:02:12;;;;;;;19.88;3.03;;;;;;;;;;4911958;29;20056;-73
2021/12/26 03:04:42;;;;;;;14.45;4.20;;;;;;;;;;4927350;29;20386;-65
2021/12/26 03:07:13;;;;;;;16.27;3.60;;;;;;;;;;4892995;29;20533;-64
2021/12/26 03:09:46;;;;;;;14.73;3.55;;;;;;;;;;4874907;29;20072;-65
2021/12/26 03:12:16;;;;;;;14.40;3.63;;;;;;;;;;4837531;29;20046;-64
2021/12/26 03:14:47;;;;;;;9.48;3.28;;;;;;;;;;4832039;29;20061;-66
2021/12/26 03:17:18;;;;;;;13.65;3.25;;;;;;;;;;4864881;29;20057;-68
2021/12/26 03:19:48;;;;;;;12.77;3.65;;;;;;;;;;4865501;29;20554;-65
2021/12/26 03:22:19;;;;;;;17.33;3.30;;;;;;;;;;4856062;29;20054;-67
2021/12/26 03:24:49;;;;;;;11.27;3.42;;;;;;;;;;4838297;29;20062;-66
2021/12/26 03:27:19;;;;;;;14.55;3.38;;;;;;;;;;4855714;29;20052;-64
2021/12/26 03:29:50;;;;;;;10.50;2.83;;;;;;;;;;4855956;29;20057;-65
2021/12/26 03:32:23;;;;;;;13.98;3.13;;;;;;;;;;4855767;29;20053;-65
2021/12/26 03:34:53;;;;;;;12.65;3.25;;;;;;;;;;4864657;29;20065;-65
2021/12/26 03:37:24;;;;;;;12.45;3.85;;;;;;;;;;4875141;29;20469;-74
2021/12/26 03:39:56;;;;;;;13.75;3.50;;;;;;;;;;4911500;29;20501;-67
2021/12/26 03:42:26;;;;;;;13.70;3.50;;;;;;;;;;4892803;29;20068;-64
2021/12/26 03:44:56;;;;;;;12.80;3.47;;;;;;;;;;4911256;29;20056;-65
2021/12/26 03:47:29;;;;;;;14.07;3.35;;;;;;;;;;4911930;29;20105;-65
2021/12/26 03:50:01;;;;;;;15.70;3.28;;;;;;;;;;4892907;29;20071;-65
2021/12/26 03:52:32;;;;;;;10.55;3.00;;;;;;;;;;4911471;29;20056;-69
2021/12/26 03:55:02;;;;;;;11.65;3.30;;;;;;;;;;4867550;29;20060;-64
2021/12/26 03:57:33;;;;;;;12.45;3.70;;;;;;;;;;4892602;29;20561;-65
2021/12/26 04:00:07;;;;;;;13.35;4.85;;;;;;;;;;4893214;29;20442;-64
2021/12/26 04:02:42;;;;;;;9.20;3.15;;;;;;;;;;4911638;29;20059;-69
2021/12/26 04:05:15;;;;;;;14.13;3.25;;;;;;;;;;4919932;29;20067;-65
2021/12/26 04:07:46;;;;;;;17.67;4.63;;;;;;;;;;4930291;29;20618;-64
2021/12/26 04:10:22;;;;;;;13.18;3.63;;;;;;;;;;4873289;29;20068;-65
2021/12/26 04:12:53;;;;;;;12.23;3.60;;;;;;;;;;4874121;29;20057;-64
2021/12/26 04:15:26;;;;;;;14.73;4.15;;;;;;;;;;4910992;29;20063;-65
2021/12/26 04:17:57;;;;;;;12.73;3.72;;;;;;;;;;4888507;29;20052;-74
2021/12/26 04:20:30;;;;;;;17.88;3.97;;;;;;;;;;4925566;29;20067;-65
2021/12/26 04:23:01;;;;;;;16.35;3.95;;;;;;;;;;4933682;29;20074;-65
2021/12/26 04:25:31;;;;;;;13.80;3.47;;;;;;;;;;4918270;29;20055;-65
2021/12/26 04:28:02;;;;;;;11.05;3.40;;;;;;;;;;4916262;29;20052;-67
2021/12/26 04:30:34;;;;;;;10.02;3.60;;;;;;;;;;4933361;29;20059;-65
2021/12/26 04:33:05;;;;;;;14.65;3.58;;;;;;;;;;4920160;29;20048;-65
2021/12/26 04:35:36;;;;;;;14.48;4.03;;;;;;;;;;4921017;29;20468;-66
2021/12/26 04:38:06;;;;;;;9.77;3.88;;;;;;;;;;4914655;29;20059;-65
2021/12/26 04:40:37;;;;;;;12.20;4.15;;;;;;;;;;4933151;29;20543;-65
2021/12/26 04:43:27;;;;;;;14.73;3.67;;;;;;;;;;4947477;28;20059;-65
2021/12/26 04:46:16;;;;;;;11.43;4.03;;;;;;;;;;4936972;28;20056;-65
2021/12/26 04:49:12;;;;;;;12.77;3.58;;;;;;;;;;4933867;29;20075;-65
2021/12/26 04:51:43;;;;;;;10.18;4.00;;;;;;;;;;4952233;29;20051;-65
2021/12/26 04:54:13;;;;;;;16.83;3.90;;;;;;;;;;4876914;29;20065;-72
2021/12/26 04:56:45;;;;;;;10.30;3.70;;;;;;;;;;4872848;29;20057;-65
2021/12/26 04:59:15;;;;;;;15.52;3.70;;;;;;;;;;4855695;29;20057;-65
2021/12/26 05:01:46;;;;;;;9.25;3.58;;;;;;;;;;4840022;29;20065;-64
2021/12/26 05:04:16;;;;;;;10.15;3.70;;;;;;;;;;4895039;29;20052;-65
2021/12/26 05:06:49;;;;;;;12.32;4.00;;;;;;;;;;4895269;29;20049;-65
2021/12/26 05:09:19;;;;;;;9.20;3.88;;;;;;;;;;4895939;29;20048;-66
2021/12/26 05:11:50;;;;;;;9.30;3.45;;;;;;;;;;4896154;29;20060;-67
2021/12/26 05:14:20;;;;;;;14.85;3.58;;;;;;;;;;4859941;29;20561;-66
2021/12/26 05:16:51;;;;;;;12.13;3.80;;;;;;;;;;4857978;29;20455;-66
2021/12/26 05:19:22;;;;;;;10.65;3.30;;;;;;;;;;4895694;29;20065;-65
2021/12/26 05:21:53;;;;;;;16.02;3.42;;;;;;;;;;4895255;29;20528;-65
2021/12/26 05:24:24;;;;;;;10.75;3.28;;;;;;;;;;4913386;29;20070;-66
2021/12/26 05:26:54;;;;;;;13.25;3.50;;;;;;;;;;4876012;29;20079;-66
2021/12/26 05:29:24;;;;;;;13.68;3.40;;;;;;;;;;4894056;29;20059;-75
2021/12/26 05:31:56;;;;;;;16.48;3.97;;;;;;;;;;4918928;29;20052;-65
2021/12/26 05:34:26;;;;;;;12.77;3.50;;;;;;;;;;4938686;29;20055;-67
2021/12/26 05:36:56;;;;;;;13.70;3.60;;;;;;;;;;4932083;29;20060;-67
2021/12/26 05:39:27;;;;;;;12.25;3.53;;;;;;;;;;4970524;28;20055;-65
2021/12/26 05:41:57;;;;;;;16.70;4.40;;;;;;;;;;4932289;29;20421;-65
2021/12/26 05:44:33;;;;;;;12.27;4.18;;;;;;;;;;4951244;29;20467;-66
2021/12/26 05:47:04;;;;;;;11.63;3.55;;;;;;;;;;4931718;29;20060;-66
2021/12/26 05:49:51;;;;;;;14.15;3.47;;;;;;;;;;4889016;29;20057;-66
2021/12/26 05:52:22;;;;;;;10.82;3.63;;;;;;;;;;4894173;29;20075;-67
2021/12/26 05:55:06;;;;;;;13.25;3.35;;;;;;;;;;4931531;29;20060;-66
2021/12/26 05:57:37;;;;;;;8.95;3.33;;;;;;;;;;4912927;29;20219;-65
2021/12/26 06:00:11;;;;;;;10.27;3.40;;;;;;;;;;4931438;29;20052;-69
2021/12/26 06:02:44;;;;;;;11.10;3.35;;;;;;;;;;4903178;29;20501;-66
2021/12/26 06:05:15;;;;;;;9.80;2.88;;;;;;;;;;4947114;29;20043;-66
2021/12/26 06:07:46;;;;;;;11.80;3.10;;;;;;;;;;4931797;29;20074;-68
2021/12/26 06:10:17;;;;;;;11.45;3.20;;;;;;;;;;4920432;29;20063;-67
2021/12/26 06:12:48;;;;;;;14.82;3.00;;;;;;;;;;4931771;29;20051;-67
2021/12/26 06:15:19;;;;;;;11.38;2.72;;;;;;;;;;4910939;29;20068;-66
2021/12/26 06:17:49;;;;;;;12.15;2.90;;;;;;;;;;4893912;29;20505;-66
2021/12/26 06:20:37;;;;;;;12.20;3.45;;;;;;;;;;4900367;29;20064;-68
2021/12/26 06:23:27;;;;;;;15.55;3.67;;;;;;;;;;4913028;29;20055;-67
2021/12/26 06:26:25;;;;;;;8.07;2.63;;;;;;;;;;4901069;29;20067;-67
2021/12/26 06:28:56;;;;;;;9.63;3.20;;;;;;;;;;4911631;29;20562;-65
2021/12/26 06:31:45;;;;;;;11.18;3.17;;;;;;;;;;4893632;29;20057;-65
2021/12/26 06:34:37;;;;;;;16.35;3.42;;;;;;;;;;4931612;29;20060;-65
2021/12/26 06:37:26;;;;;;;10.30;2.92;;;;;;;;;;4918522;29;20052;-67
2021/12/26 06:40:14;;;;;;;8.00;3.22;;;;;;;;;;4893922;29;20049;-68
2021/12/26 06:43:03;;;;;;;14.48;3.53;;;;;;;;;;4914542;29;20051;-67
2021/12/26 06:46:00;;;;;;;8.93;3.03;;;;;;;;;;4931499;29;20063;-67
2021/12/26 06:48:56;;;;;;;14.82;3.08;;;;;;;;;;4910527;29;20059;-67
2021/12/26 06:51:27;;;;;;;11.10;3.13;;;;;;;;;;4912499;29;20063;-67
2021/12/26 06:53:58;;;;;;;8.63;3.25;;;;;;;;;;4893285;29;20055;-65
2021/12/26 06:56:30;;;;;;;9.00;2.70;;;;;;;;;;4893756;29;20060;-66
2021/12/26 06:59:03;;;;;;;7.35;2.72;;;;;;;;;;4911804;29;20051;-66
2021/12/26 07:01:34;;;;;;;13.18;3.50;;;;;;;;;;4912569;29;20068;-66
2021/12/26 07:04:06;;;;;;;12.85;3.13;;;;;;;;;;4892972;29;20048;-66
2021/12/26 07:06:38;;;;;;;15.02;4.50;;;;;;;;;;4883401;29;20453;-67
2021/12/26 07:09:17;;;;;;;9.82;2.70;;;;;;;;;;4892892;29;20500;-73
2021/12/26 07:11:48;;;;;;;7.82;2.67;;;;;;;;;;4894896;29;20068;-69
2021/12/26 07:14:33;;;;;;;15.95;3.03;;;;;;;;;;4855786;29;20065;-66
2021/12/26 07:17:04;;;;;;;15.95;3.15;;;;;;;;;;4856309;29;20061;-66
2021/12/26 07:19:35;;;;;;;9.27;3.03;;;;;;;;;;4852758;29;20057;-66
2021/12/26 07:22:14;;;;;;;12.88;2.92;;;;;;;;;;4874351;29;20732;-66
2021/12/26 07:24:46;;;;;;;13.52;3.13;;;;;;;;;;4858726;29;20060;-66
2021/12/26 07:27:17;;;;;;;10.43;3.17;;;;;;;;;;4891834;29;20053;-67
2021/12/26 07:30:20;;;;;;;8.98;3.20;;;;;;;;;;4892937;29;20090;-65
2021/12/26 07:32:50;;;;;;;13.13;3.33;;;;;;;;;;4892571;29;20537;-67
2021/12/26 07:35:22;;;;;;;8.27;2.55;;;;;;;;;;4840536;29;20057;-65
2021/12/26 07:38:03;;;;;;;9.32;2.80;;;;;;;;;;4855319;29;20573;-67
2021/12/26 07:40:33;;;;;;;9.60;2.70;;;;;;;;;;4873180;29;20056;-67
2021/12/26 07:43:12;;;;;;;8.40;3.00;;;;;;;;;;4818783;29;20503;-67
2021/12/26 07:46:01;;;;;;;9.30;3.03;;;;;;;;;;4820972;29;20058;-67
2021/12/26 07:48:31;;;;;;;8.00;2.60;;;;;;;;;;4837158;29;20057;-66
2021/12/26 07:51:04;;;;;;;10.45;2.42;;;;;;;;;;4837296;29;20070;-65
2021/12/26 07:53:58;;;;;;;11.40;2.90;;;;;;;;;;4838343;29;20050;-65
2021/12/26 07:56:46;;;;;;;10.35;3.22;;;;;;;;;;4830619;29;20055;-67
2021/12/26 07:59:36;;;;;;;10.52;2.45;;;;;;;;;;4811042;29;20066;-67
2021/12/26 08:02:25;;;;;;;9.30;2.53;;;;;;;;;;4856004;29;20701;-66
2021/12/26 08:05:16;;;;;;;12.27;3.80;;;;;;;;;;4888909;29;20426;-68
2021/12/26 08:08:05;;;;;;;9.38;2.95;;;;;;;;;;4896079;29;20057;-65
2021/12/26 08:10:35;;;;;;;16.73;3.33;;;;;;;;;;4896816;29;20048;-65
2021/12/26 08:13:06;;;;;;;12.50;3.08;;;;;;;;;;4914571;29;20048;-67
2021/12/26 08:15:38;;;;;;;7.28;3.00;;;;;;;;;;4923305;29;20052;-69
2021/12/26 08:18:09;;;;;;;9.15;2.70;;;;;;;;;;4942628;29;20059;-66
2021/12/26 08:20:39;;;;;;;7.15;2.50;;;;;;;;;;4960887;28;20059;-67
2021/12/26 08:23:11;;;;;;;6.93;2.45;;;;;;;;;;4956104;28;20062;-67
2021/12/26 08:25:42;;;;;;;11.10;2.53;;;;;;;;;;4952978;28;20054;-67
2021/12/26 08:28:14;;;;;;;8.55;2.75;;;;;;;;;;4952806;28;20055;-66
2021/12/26 08:30:45;;;;;;;7.25;2.65;;;;;;;;;;4968285;28;20054;-67
2021/12/26 08:33:16;;;;;;;7.63;2.55;;;;;;;;;;4968555;28;20062;-67
2021/12/26 08:35:49;;;;;;;13.35;2.65;;;;;;;;;;4968421;28;20051;-66
2021/12/26 08:38:22;;;;;;;8.27;2.83;;;;;;;;;;4952363;29;20047;-66
2021/12/26 08:40:55;;;;;;;11.70;3.22;;;;;;;;;;4952747;29;20411;-68
2021/12/26 08:43:25;;;;;;;9.15;2.63;;;;;;;;;;4870261;29;20048;-68
2021/12/26 08:45:56;;;;;;;9.82;3.35;;;;;;;;;;4914408;29;20063;-66
2021/12/26 08:48:28;;;;;;;8.02;2.63;;;;;;;;;;4884726;29;20064;-66
2021/12/26 08:50:58;;;;;;;10.77;2.80;;;;;;;;;;4895019;29;20097;-67
2021/12/26 08:53:29;;;;;;;11.90;3.17;;;;;;;;;;4916527;29;20058;-67
2021/12/26 08:55:59;;;;;;;9.82;2.88;;;;;;;;;;4914052;29;20063;-69
2021/12/26 08:58:30;;;;;;;9.13;2.53;;;;;;;;;;4913924;29;20056;-66
2021/12/26 09:01:01;;;;;;;9.65;3.20;;;;;;;;;;4913727;29;20056;-67
2021/12/26 09:03:31;;;;;;;10.77;2.95;;;;;;;;;;4884217;29;20061;-67
2021/12/26 09:06:01;;;;;;;7.15;2.60;;;;;;;;;;4864817;29;20064;-66
2021/12/26 09:08:32;;;;;;;11.05;2.85;;;;;;;;;;4857793;29;20069;-66
2021/12/26 09:11:02;;;;;;;14.80;2.95;;;;;;;;;;4878019;29;20057;-69
2021/12/26 09:13:35;;;;;;;10.80;2.65;;;;;;;;;;4875016;29;20053;-66
2021/12/26 09:16:07;;;;;;;7.90;2.67;;;;;;;;;;4862814;29;20060;-66
2021/12/26 09:18:38;;;;;;;9.10;2.50;;;;;;;;;;4876086;29;20060;-67
2021/12/26 09:21:08;;;;;;;14.07;5.07;;;;;;;;;;4820945;29;20462;-66
2021/12/26 09:23:38;;;;;;;8.43;2.45;;;;;;;;;;4874274;29;20057;-66
2021/12/26 09:26:08;;;;;;;10.43;2.45;;;;;;;;;;4913952;29;20500;-67
2021/12/26 09:28:39;;;;;;;12.70;2.72;;;;;;;;;;4885306;29;20064;-67
2021/12/26 09:31:09;;;;;;;18.33;3.65;;;;;;;;;;4857595;29;20070;-68
2021/12/26 09:33:40;;;;;;;12.00;2.90;;;;;;;;;;4866841;29;20072;-68
2021/12/26 09:36:10;;;;;;;9.65;2.92;;;;;;;;;;4885118;29;20072;-67
2021/12/26 09:38:40;;;;;;;8.07;2.83;;;;;;;;;;4885699;29;20080;-69
2021/12/26 09:41:11;;;;;;;17.80;3.22;;;;;;;;;;4904158;29;20052;-66
2021/12/26 09:43:41;;;;;;;9.60;3.00;;;;;;;;;;4903965;29;20122;-66
2021/12/26 09:46:12;;;;;;;24.55;4.20;;;;;;;;;;4913518;29;20076;-66
2021/12/26 09:48:43;;;;;;;7.78;3.13;;;;;;;;;;4894297;29;20055;-66
2021/12/26 09:51:13;;;;;;;20.48;3.70;;;;;;;;;;4913890;29;20485;-66
2021/12/26 09:53:43;;;;;;;13.27;3.58;;;;;;;;;;4894423;29;20053;-69
2021/12/26 09:56:14;;;;;;;15.63;4.05;;;;;;;;;;4922014;29;20063;-67
2021/12/26 09:58:55;;;;;;;10.32;4.35;;;;;;;;;;4932048;29;20452;-67
2021/12/26 10:01:30;;;;;;;10.55;3.65;;;;;;;;;;4884526;29;20133;-75
2021/12/26 10:04:17;;;;;;;8.70;2.83;;;;;;;;;;4932615;29;20060;-67
2021/12/26 10:06:57;;;;;;;16.58;2.67;;;;;;;;;;4964545;28;20050;-68
2021/12/26 10:09:28;;;;;;;13.75;3.25;;;;;;;;;;4934900;29;20058;-67
2021/12/26 10:12:01;;;;;;;14.98;3.38;;;;;;;;;;4957838;28;20051;-67
2021/12/26 10:14:33;;;;;;;12.18;3.30;;;;;;;;;;4970537;28;20054;-69
2021/12/26 10:17:07;;;;;;;14.02;3.58;;;;;;;;;;4970480;28;20074;-67
2021/12/26 10:19:44;;;;;;;8.25;3.13;;;;;;;;;;4950735;29;20058;-67
2021/12/26 10:22:28;;;;;;;15.23;3.50;;;;;;;;;;4969682;28;20054;-67
2021/12/26 10:24:59;;;;;;;13.32;3.33;;;;;;;;;;4950849;28;20062;-66
2021/12/26 10:27:31;;;;;;;9.00;3.20;;;;;;;;;;4899659;29;21054;-67
2021/12/26 10:30:05;;;;;;;8.50;2.63;;;;;;;;;;4931828;29;20059;-67
2021/12/26 10:32:38;;;;;;;10.48;3.33;;;;;;;;;;4931546;29;20074;-67
2021/12/26 10:35:14;;;;;;;11.88;2.83;;;;;;;;;;4912757;29;20052;-66
2021/12/26 10:37:52;;;;;;;12.02;3.15;;;;;;;;;;4912630;29;20528;-66
2021/12/26 10:40:26;;;;;;;11.40;3.30;;;;;;;;;;4912317;29;20063;-66
2021/12/26 10:43:12;;;;;;;7.57;2.28;;;;;;;;;;4912063;29;20591;-66
2021/12/26 10:45:43;;;;;;;13.88;2.40;;;;;;;;;;4912095;29;20083;-66
2021/12/26 10:48:13;;;;;;;12.63;2.90;;;;;;;;;;4894549;29;20065;-67
2021/12/26 10:50:44;;;;;;;9.68;2.92;;;;;;;;;;4912268;29;20052;-67
2021/12/26 10:53:14;;;;;;;11.32;2.92;;;;;;;;;;4893016;29;20445;-66
2021/12/26 10:55:53;;;;;;;8.48;3.00;;;;;;;;;;4893803;29;20178;-66
2021/12/26 10:58:27;;;;;;;7.63;2.55;;;;;;;;;;4875816;29;20064;-65
2021/12/26 11:00:59;;;;;;;8.48;2.30;;;;;;;;;;4910043;29;20067;-66
2021/12/26 11:03:31;;;;;;;7.35;2.40;;;;;;;;;;4881141;29;20052;-68
2021/12/26 11:06:06;;;;;;;4.43;2.05;;;;;;;;;;4928626;29;20052;-65
2021/12/26 11:08:41;;;;;;;6.35;2.50;;;;;;;;;;4931305;29;20524;-71
2021/12/26 11:11:23;;;;;;;12.07;2.40;;;;;;;;;;4931125;29;20055;-66
2021/12/26 11:14:02;;;;;;;11.57;5.63;;;;;;;;;;4902505;29;20063;-66
2021/12/26 11:16:39;;;;;;;9.93;2.78;;;;;;;;;;4931113;29;20657;-65
2021/12/26 11:19:10;;;;;;;8.82;2.15;;;;;;;;;;4949480;29;20066;-66
2021/12/26 11:21:40;;;;;;;5.10;2.22;;;;;;;;;;4922892;29;20051;-66
2021/12/26 11:24:10;;;;;;;8.65;2.60;;;;;;;;;;4966177;28;20051;-65
2021/12/26 11:26:42;;;;;;;9.10;2.50;;;;;;;;;;4969473;28;20569;-67
2021/12/26 11:29:12;;;;;;;8.25;2.70;;;;;;;;;;4969895;28;20467;-64
2021/12/26 11:31:42;;;;;;;6.47;2.00;;;;;;;;;;4973073;28;20057;-66
2021/12/26 11:34:14;;;;;;;6.80;2.03;;;;;;;;;;4992942;28;20058;-66
2021/12/26 11:36:49;;;;;;;5.28;2.15;;;;;;;;;;4960835;28;20058;-66
2021/12/26 11:39:37;;;;;;;6.38;2.10;;;;;;;;;;4992414;28;20054;-66
2021/12/26 11:42:53;;;;;;;6.10;2.30;;;;;;;;;;4993654;28;20051;-66
2021/12/26 11:46:09;;;;;;;5.25;2.10;;;;;;;;;;4973120;28;20219;-70
2021/12/26 11:49:33;;;;;;;4.63;1.88;;;;;;;;;;4933334;28;20059;-67
2021/12/26 11:52:57;;;;;;;7.38;2.75;;;;;;;;;;4973381;28;20051;-66
2021/12/26 11:55:50;;;;;;;4.70;2.10;;;;;;;;;;4992645;28;20053;-66
2021/12/26 11:58:23;;;;;;;7.97;2.05;;;;;;;;;;4978625;28;20066;-64
2021/12/26 12:00:55;;;;;;;6.75;2.47;;;;;;;;;;5006358;28;20050;-66
2021/12/26 12:03:30;;;;;;;9.70;2.17;;;;;;;;;;5011814;28;20054;-65
2021/12/26 12:06:01;;;;;;;7.53;2.22;;;;;;;;;;5012066;28;20058;-68
2021/12/26 12:08:34;;;;;;;5.20;2.20;;;;;;;;;;5011592;28;20057;-65
2021/12/26 12:11:10;;;;;;;5.30;2.17;;;;;;;;;;5011860;28;20050;-66
2021/12/26 12:13:47;;;;;;;10.60;2.33;;;;;;;;;;5031196;28;20057;-66
2021/12/26 12:16:24;;;;;;;6.88;2.17;;;;;;;;;;4994251;28;20042;-65
2021/12/26 12:18:57;;;;;;;10.20;3.50;;;;;;;;;;4978940;28;20480;-66
2021/12/26 12:21:36;;;;;;;5.60;1.90;;;;;;;;;;5011782;28;20506;-67
2021/12/26 12:24:14;;;;;;;5.47;2.13;;;;;;;;;;4993061;28;20052;-66
2021/12/26 12:27:09;;;;;;;4.82;2.28;;;;;;;;;;5011133;28;20061;-67
2021/12/26 12:29:50;;;;;;;9.10;2.25;;;;;;;;;;4978903;28;20505;-65
2021/12/26 12:32:27;;;;;;;5.22;2.08;;;;;;;;;;5011130;28;20060;-66
2021/12/26 12:35:05;;;;;;;10.35;2.45;;;;;;;;;;5011235;28;20410;-64
2021/12/26 12:37:37;;;;;;;;;;;;;;;;;;4952601;28;20051;-63
2021/12/26 12:40:33;;;;;;;6.43;2.08;;;;;;;;;;4937028;28;19926;-64
2021/12/26 12:43:13;;;;;;;6.43;1.95;;;;;;;;;;4952866;28;20170;-65
2021/12/26 12:45:55;;;;;;;7.20;1.92;;;;;;;;;;4952432;28;20133;-64
2021/12/26 12:48:38;;;;;;;3.15;1.58;;;;;;;;;;4952818;28;20597;-65
2021/12/26 12:51:18;;;;;;;7.57;2.00;;;;;;;;;;4961035;28;20058;-64
2021/12/26 12:53:58;;;;;;;8.77;2.80;;;;;;;;;;4980231;28;20453;-64
2021/12/26 12:56:36;;;;;;;4.88;2.28;;;;;;;;;;4991479;28;20063;-64
2021/12/26 12:59:25;;;;;;;6.80;2.20;;;;;;;;;;4974765;28;20073;-66
2021/12/26 13:02:25;;;;;;;6.45;1.95;;;;;;;;;;4971728;28;20054;-64
2021/12/26 13:04:57;;;;;;;8.18;1.90;;;;;;;;;;4923823;28;20158;-69
2021/12/26 13:07:30;;;;;;;10.45;1.73;;;;;;;;;;4971749;28;20074;-64
2021/12/26 13:10:10;;;;;;;8.27;1.73;;;;;;;;;;4971462;28;20053;-64
2021/12/26 13:12:41;;;;;;;4.35;1.98;;;;;;;;;;4981596;28;20055;-65
2021/12/26 13:15:12;;;;;;;4.13;2.10;;;;;;;;;;4951546;28;20060;-65
2021/12/26 13:17:45;;;;;;;7.80;1.95;;;;;;;;;;5010359;28;20106;-64
2021/12/26 13:20:20;;;;;;;6.32;1.65;;;;;;;;;;5010418;28;20054;-65
2021/12/26 13:22:56;;;;;;;6.40;1.70;;;;;;;;;;4990452;28;20050;-64
2021/12/26 13:25:42;;;;;;;4.47;1.33;;;;;;;;;;4958499;28;20486;-65
2021/12/26 13:28:16;;;;;;;5.82;1.50;;;;;;;;;;4990534;28;20047;-64
2021/12/26 13:30:53;;;;;;;4.57;1.63;;;;;;;;;;4957861;28;20053;-64
2021/12/26 13:33:31;;;;;;;7.72;1.75;;;;;;;;;;5010023;28;20546;-64
2021/12/26 13:36:08;;;;;;;5.53;1.33;;;;;;;;;;4961771;28;20062;-66
2021/12/26 13:38:39;;;;;;;7.57;2.13;;;;;;;;;;5012212;28;20517;-64
2021/12/26 13:41:13;;;;;;;7.10;1.60;;;;;;;;;;5029592;28;20068;-68
2021/12/26 13:43:44;;;;;;;3.63;1.25;;;;;;;;;;5029734;28;20050;-63
2021/12/26 13:46:22;;;;;;;3.78;1.45;;;;;;;;;;5029949;28;20061;-65
2021/12/26 13:48:55;;;;;;;5.68;1.45;;;;;;;;;;5029416;28;20050;-64
2021/12/26 13:51:34;;;;;;;4.43;1.13;;;;;;;;;;4997637;28;20056;-63
2021/12/26 13:54:17;;;;;;;4.32;1.73;;;;;;;;;;5013353;28;20064;-64
2021/12/26 13:57:00;;;;;;;4.95;1.83;;;;;;;;;;5013823;28;20401;-64
2021/12/26 13:59:31;;;;;;;5.93;1.60;;;;;;;;;;5031475;28;20405;-64
2021/12/26 14:02:04;;;;;;;3.67;1.92;;;;;;;;;;5049493;28;20374;-64
2021/12/26 14:04:42;;;;;;;4.95;1.90;;;;;;;;;;5028893;28;20401;-63
2021/12/26 14:07:16;;;;;;;2.10;1.20;;;;;;;;;;5049455;28;20548;-63
2021/12/26 14:09:49;;;;;;;3.97;1.45;;;;;;;;;;5049392;28;20064;-66
2021/12/26 14:12:35;;;;;;;3.78;1.52;;;;;;;;;;4999974;28;20045;-63
2021/12/26 14:15:31;;;;;;;4.18;1.00;;;;;;;;;;5049203;28;20091;-63
2021/12/26 14:18:20;;;;;;;2.60;0.98;;;;;;;;;;4973383;28;20050;-64
2021/12/26 14:21:02;;;;;;;5.70;1.05;;;;;;;;;;4961073;28;20065;-68
2021/12/26 14:23:41;;;;;;;3.22;1.17;;;;;;;;;;4957663;28;20070;-66
2021/12/26 14:26:19;;;;;;;3.78;1.50;;;;;;;;;;4973719;28;20442;-64
2021/12/26 14:28:50;;;;;;;5.20;1.30;;;;;;;;;;4970089;28;20059;-64
2021/12/26 14:31:29;;;;;;;;;;;;;;;;;;4970614;28;21140;-64
2021/12/26 14:34:02;;;;;;;4.90;2.13;;;;;;;;;;4970591;28;19922;-64
2021/12/26 14:36:49;;;;;;;4.93;1.70;;;;;;;;;;4969892;28;20106;-64
2021/12/26 14:39:43;;;;;;;6.82;1.73;;;;;;;;;;4970156;28;20066;-63
2021/12/26 14:42:18;;;;;;;4.00;1.40;;;;;;;;;;4966627;28;20060;-64
2021/12/26 14:45:00;;;;;;;1.48;0.80;;;;;;;;;;5008992;28;20414;-64
2021/12/26 14:47:50;;;;;;;3.97;1.17;;;;;;;;;;4992826;28;20553;-64
2021/12/26 14:50:23;;;;;;;;;;;;;;;;;;5069102;28;20071;-63
2021/12/26 14:52:59;;;;;;;4.85;1.38;;;;;;;;;;5019141;28;19921;-63
2021/12/26 14:56:11;;;;;;;3.70;1.30;;;;;;;;;;5035436;28;20049;-64
2021/12/26 14:58:48;;;;;;;4.68;2.13;;;;;;;;;;5008792;28;20421;-64
2021/12/26 15:01:33;;;;;;;5.25;1.30;;;;;;;;;;5008965;28;20053;-66
2021/12/26 15:04:12;;;;;;;3.22;1.13;;;;;;;;;;5008185;28;20062;-63
2021/12/26 15:06:52;;;;;;;5.68;1.08;;;;;;;;;;5008481;28;20052;-64
2021/12/26 15:09:34;;;;;;;4.10;1.05;;;;;;;;;;4976469;28;20060;-64
2021/12/26 15:12:05;;;;;;;2.88;1.35;;;;;;;;;;4975662;28;20049;-63
2021/12/26 15:14:35;;;;;;;5.15;1.13;;;;;;;;;;5009020;28;20058;-63
2021/12/26 15:17:17;;;;;;;3.65;1.50;;;;;;;;;;4992640;28;20057;-64
2021/12/26 15:19:48;;;;;;;6.57;1.60;;;;;;;;;;5008853;28;20061;-76
2021/12/26 15:22:18;;;;;;;3.55;1.30;;;;;;;;;;4972293;28;20061;-64
2021/12/26 15:24:51;;;;;;;4.97;1.30;;;;;;;;;;4989109;28;20055;-65
2021/12/26 15:27:31;;;;;;;2.42;1.23;;;;;;;;;;4988945;28;20062;-64
2021/12/26 15:30:19;;;;;;;4.55;1.23;;;;;;;;;;4989142;28;20069;-62
2021/12/26 15:32:49;;;;;;;3.72;1.25;;;;;;;;;;4988981;28;20077;-64
2021/12/26 15:35:19;;;;;;;4.95;1.30;;;;;;;;;;4994495;28;20061;-64
2021/12/26 15:37:50;;;;;;;3.60;1.35;;;;;;;;;;4969070;28;20051;-64